sensor_id;sensor_type;location;lat;lon;timestamp;P1;durP1;ratioP1;P2;durP2;ratioP2
67274;SDS011;55463;52.324;5.122;2023-02-15T00:00:01;263.52;;;55.45;;
67274;SDS011;55463;52.324;5.122;2023-02-15T00:02:28;250.15;;;55.50;;
67274;SDS011;55463;52.324;5.122;2023-02-15T00:04:53;169.23;;;50.33;;
67274;SDS011;55463;52.324;5.122;2023-02-15T00:07:20;187.65;;;52.08;;
67274;SDS011;55463;52.324;5.122;2023-02-15T00:09:46;130.85;;;42.78;;
67274;SDS011;55463;52.324;5.122;2023-02-15T00:12:12;204.75;;;54.40;;
67274;SDS011;55463;52.324;5.122;2023-02-15T00:14:37;177.60;;;52.08;;
67274;SDS011;55463;52.324;5.122;2023-02-15T00:17:03;184.00;;;46.08;;
67274;SDS011;55463;52.324;5.122;2023-02-15T00:19:29;205.52;;;51.70;;
67274;SDS011;55463;52.324;5.122;2023-02-15T00:21:54;194.95;;;64.65;;
67274;SDS011;55463;52.324;5.122;2023-02-15T00:24:20;178.02;;;50.95;;
67274;SDS011;55463;52.324;5.122;2023-02-15T00:26:46;197.38;;;57.20;;
67274;SDS011;55463;52.324;5.122;2023-02-15T00:29:13;167.73;;;52.70;;
67274;SDS011;55463;52.324;5.122;2023-02-15T00:31:39;173.00;;;48.83;;
67274;SDS011;55463;52.324;5.122;2023-02-15T00:34:18;192.15;;;62.20;;
67274;SDS011;55463;52.324;5.122;2023-02-15T00:36:45;173.68;;;53.67;;
67274;SDS011;55463;52.324;5.122;2023-02-15T00:39:11;171.13;;;53.72;;
67274;SDS011;55463;52.324;5.122;2023-02-15T00:41:37;171.15;;;51.35;;
67274;SDS011;55463;52.324;5.122;2023-02-15T00:44:03;157.70;;;49.78;;
67274;SDS011;55463;52.324;5.122;2023-02-15T00:46:29;146.05;;;47.47;;
67274;SDS011;55463;52.324;5.122;2023-02-15T00:48:54;151.23;;;49.78;;
67274;SDS011;55463;52.324;5.122;2023-02-15T00:51:20;153.80;;;48.45;;
67274;SDS011;55463;52.324;5.122;2023-02-15T00:53:45;155.85;;;50.42;;
67274;SDS011;55463;52.324;5.122;2023-02-15T00:56:11;168.77;;;54.45;;
67274;SDS011;55463;52.324;5.122;2023-02-15T00:58:37;149.93;;;48.53;;
67274;SDS011;55463;52.324;5.122;2023-02-15T01:01:07;168.80;;;52.20;;
67274;SDS011;55463;52.324;5.122;2023-02-15T01:03:37;175.80;;;55.10;;
67274;SDS011;55463;52.324;5.122;2023-02-15T01:06:02;158.35;;;53.03;;
67274;SDS011;55463;52.324;5.122;2023-02-15T01:08:28;175.43;;;54.67;;
67274;SDS011;55463;52.324;5.122;2023-02-15T01:10:54;164.43;;;55.95;;
67274;SDS011;55463;52.324;5.122;2023-02-15T01:13:19;181.60;;;58.85;;
67274;SDS011;55463;52.324;5.122;2023-02-15T01:15:45;192.15;;;58.63;;
67274;SDS011;55463;52.324;5.122;2023-02-15T01:18:16;163.48;;;56.35;;
67274;SDS011;55463;52.324;5.122;2023-02-15T01:20:42;192.27;;;63.22;;
67274;SDS011;55463;52.324;5.122;2023-02-15T01:23:07;201.50;;;61.22;;
67274;SDS011;55463;52.324;5.122;2023-02-15T01:25:34;227.70;;;65.85;;
67274;SDS011;55463;52.324;5.122;2023-02-15T01:28:00;218.35;;;62.75;;
67274;SDS011;55463;52.324;5.122;2023-02-15T01:30:26;194.95;;;62.85;;
67274;SDS011;55463;52.324;5.122;2023-02-15T01:32:52;205.30;;;60.85;;
67274;SDS011;55463;52.324;5.122;2023-02-15T01:35:17;230.05;;;64.85;;
67274;SDS011;55463;52.324;5.122;2023-02-15T01:37:43;227.68;;;61.85;;
67274;SDS011;55463;52.324;5.122;2023-02-15T01:40:11;183.80;;;59.85;;
67274;SDS011;55463;52.324;5.122;2023-02-15T01:42:39;243.82;;;66.47;;
67274;SDS011;55463;52.324;5.122;2023-02-15T01:45:14;207.15;;;59.58;;
67274;SDS011;55463;52.324;5.122;2023-02-15T01:47:45;186.98;;;58.30;;
67274;SDS011;55463;52.324;5.122;2023-02-15T01:50:18;181.27;;;56.20;;
67274;SDS011;55463;52.324;5.122;2023-02-15T01:56:09;186.15;;;55.40;;
67274;SDS011;55463;52.324;5.122;2023-02-15T01:58:41;192.93;;;56.03;;
67274;SDS011;55463;52.324;5.122;2023-02-15T02:01:08;197.68;;;54.72;;
67274;SDS011;55463;52.324;5.122;2023-02-15T02:06:13;184.13;;;52.53;;
67274;SDS011;55463;52.324;5.122;2023-02-15T02:08:39;146.85;;;48.97;;
67274;SDS011;55463;52.324;5.122;2023-02-15T02:11:10;184.55;;;54.22;;
67274;SDS011;55463;52.324;5.122;2023-02-15T02:13:37;206.60;;;56.25;;
67274;SDS011;55463;52.324;5.122;2023-02-15T02:16:19;178.68;;;49.42;;
67274;SDS011;55463;52.324;5.122;2023-02-15T02:34:25;180.90;;;50.08;;
67274;SDS011;55463;52.324;5.122;2023-02-15T02:42:52;183.25;;;50.47;;
67274;SDS011;55463;52.324;5.122;2023-02-15T02:49:12;170.00;;;49.53;;
67274;SDS011;55463;52.324;5.122;2023-02-15T03:05:08;167.13;;;48.92;;
67274;SDS011;55463;52.324;5.122;2023-02-15T03:07:45;174.15;;;50.65;;
67274;SDS011;55463;52.324;5.122;2023-02-15T03:10:38;163.70;;;50.05;;
67274;SDS011;55463;52.324;5.122;2023-02-15T03:20:28;187.23;;;51.17;;
67274;SDS011;55463;52.324;5.122;2023-02-15T03:29:08;178.27;;;50.08;;
67274;SDS011;55463;52.324;5.122;2023-02-15T03:34:59;171.18;;;49.00;;
67274;SDS011;55463;52.324;5.122;2023-02-15T03:38:00;190.85;;;50.63;;
67274;SDS011;55463;52.324;5.122;2023-02-15T03:43:59;192.10;;;52.25;;
67274;SDS011;55463;52.324;5.122;2023-02-15T03:46:48;170.02;;;49.13;;
67274;SDS011;55463;52.324;5.122;2023-02-15T03:49:36;183.80;;;51.05;;
67274;SDS011;55463;52.324;5.122;2023-02-15T03:52:21;164.27;;;47.67;;
67274;SDS011;55463;52.324;5.122;2023-02-15T03:54:59;167.43;;;47.53;;
67274;SDS011;55463;52.324;5.122;2023-02-15T03:57:26;180.70;;;49.72;;
67274;SDS011;55463;52.324;5.122;2023-02-15T04:00:29;182.27;;;49.88;;
67274;SDS011;55463;52.324;5.122;2023-02-15T04:06:07;179.95;;;48.63;;
67274;SDS011;55463;52.324;5.122;2023-02-15T04:08:35;152.23;;;47.42;;
67274;SDS011;55463;52.324;5.122;2023-02-15T04:11:19;206.98;;;51.28;;
67274;SDS011;55463;52.324;5.122;2023-02-15T04:13:47;199.63;;;51.80;;
67274;SDS011;55463;52.324;5.122;2023-02-15T04:16:12;194.90;;;50.33;;
67274;SDS011;55463;52.324;5.122;2023-02-15T04:18:39;185.70;;;50.13;;
67274;SDS011;55463;52.324;5.122;2023-02-15T04:21:25;163.60;;;47.35;;
67274;SDS011;55463;52.324;5.122;2023-02-15T04:24:10;163.10;;;46.55;;
67274;SDS011;55463;52.324;5.122;2023-02-15T04:26:55;172.57;;;48.47;;
67274;SDS011;55463;52.324;5.122;2023-02-15T04:29:22;185.80;;;47.28;;
67274;SDS011;55463;52.324;5.122;2023-02-15T04:31:49;160.75;;;47.03;;
67274;SDS011;55463;52.324;5.122;2023-02-15T04:34:15;152.10;;;46.22;;
67274;SDS011;55463;52.324;5.122;2023-02-15T04:36:40;151.73;;;47.53;;
67274;SDS011;55463;52.324;5.122;2023-02-15T04:39:06;183.90;;;48.72;;
67274;SDS011;55463;52.324;5.122;2023-02-15T04:41:32;166.75;;;47.05;;
67274;SDS011;55463;52.324;5.122;2023-02-15T04:43:58;189.60;;;48.75;;
67274;SDS011;55463;52.324;5.122;2023-02-15T04:46:25;168.63;;;48.80;;
67274;SDS011;55463;52.324;5.122;2023-02-15T04:48:51;157.13;;;45.80;;
67274;SDS011;55463;52.324;5.122;2023-02-15T04:51:16;152.50;;;45.47;;
67274;SDS011;55463;52.324;5.122;2023-02-15T04:53:41;173.90;;;48.40;;
67274;SDS011;55463;52.324;5.122;2023-02-15T04:56:07;155.50;;;45.70;;
67274;SDS011;55463;52.324;5.122;2023-02-15T04:58:32;135.88;;;43.22;;
67274;SDS011;55463;52.324;5.122;2023-02-15T05:00:58;138.15;;;44.10;;
67274;SDS011;55463;52.324;5.122;2023-02-15T05:03:24;185.15;;;49.15;;
67274;SDS011;55463;52.324;5.122;2023-02-15T05:05:50;157.50;;;46.30;;
67274;SDS011;55463;52.324;5.122;2023-02-15T05:08:15;167.02;;;45.38;;
67274;SDS011;55463;52.324;5.122;2023-02-15T05:10:41;168.55;;;45.20;;
67274;SDS011;55463;52.324;5.122;2023-02-15T05:13:07;170.40;;;45.28;;
67274;SDS011;55463;52.324;5.122;2023-02-15T05:15:32;164.52;;;45.15;;
67274;SDS011;55463;52.324;5.122;2023-02-15T05:17:58;154.48;;;43.25;;
67274;SDS011;55463;52.324;5.122;2023-02-15T05:20:23;175.60;;;44.38;;
67274;SDS011;55463;52.324;5.122;2023-02-15T05:22:48;161.90;;;45.47;;
67274;SDS011;55463;52.324;5.122;2023-02-15T05:25:17;166.88;;;44.25;;
67274;SDS011;55463;52.324;5.122;2023-02-15T05:28:01;138.27;;;39.70;;
67274;SDS011;55463;52.324;5.122;2023-02-15T05:30:48;145.52;;;42.35;;
67274;SDS011;55463;52.324;5.122;2023-02-15T05:33:34;144.23;;;42.47;;
67274;SDS011;55463;52.324;5.122;2023-02-15T05:36:00;127.32;;;40.85;;
67274;SDS011;55463;52.324;5.122;2023-02-15T05:38:26;161.90;;;44.25;;
67274;SDS011;55463;52.324;5.122;2023-02-15T05:40:52;154.98;;;43.30;;
67274;SDS011;55463;52.324;5.122;2023-02-15T05:43:17;169.50;;;45.60;;
67274;SDS011;55463;52.324;5.122;2023-02-15T05:45:47;182.52;;;44.90;;
67274;SDS011;55463;52.324;5.122;2023-02-15T05:48:13;144.25;;;40.72;;
67274;SDS011;55463;52.324;5.122;2023-02-15T05:50:38;141.85;;;42.63;;
67274;SDS011;55463;52.324;5.122;2023-02-15T05:53:04;136.82;;;41.72;;
67274;SDS011;55463;52.324;5.122;2023-02-15T05:55:29;148.15;;;42.03;;
67274;SDS011;55463;52.324;5.122;2023-02-15T05:57:55;155.52;;;41.72;;
67274;SDS011;55463;52.324;5.122;2023-02-15T06:00:20;129.00;;;39.90;;
67274;SDS011;55463;52.324;5.122;2023-02-15T06:02:45;136.82;;;40.47;;
67274;SDS011;55463;52.324;5.122;2023-02-15T06:05:11;145.50;;;42.63;;
67274;SDS011;55463;52.324;5.122;2023-02-15T06:07:36;140.80;;;41.85;;
67274;SDS011;55463;52.324;5.122;2023-02-15T06:10:02;151.85;;;41.80;;
67274;SDS011;55463;52.324;5.122;2023-02-15T06:12:28;165.63;;;44.30;;
67274;SDS011;55463;52.324;5.122;2023-02-15T06:14:54;141.77;;;42.60;;
67274;SDS011;55463;52.324;5.122;2023-02-15T06:17:19;131.93;;;40.70;;
67274;SDS011;55463;52.324;5.122;2023-02-15T06:19:46;177.85;;;43.95;;
67274;SDS011;55463;52.324;5.122;2023-02-15T06:22:12;180.55;;;44.60;;
67274;SDS011;55463;52.324;5.122;2023-02-15T06:24:39;184.27;;;43.28;;
67274;SDS011;55463;52.324;5.122;2023-02-15T06:27:07;122.93;;;39.42;;
67274;SDS011;55463;52.324;5.122;2023-02-15T06:29:33;134.18;;;39.55;;
67274;SDS011;55463;52.324;5.122;2023-02-15T06:31:58;129.68;;;39.90;;
67274;SDS011;55463;52.324;5.122;2023-02-15T06:34:23;128.80;;;38.15;;
67274;SDS011;55463;52.324;5.122;2023-02-15T06:36:49;116.10;;;38.92;;
67274;SDS011;55463;52.324;5.122;2023-02-15T06:39:14;135.13;;;39.67;;
67274;SDS011;55463;52.324;5.122;2023-02-15T06:41:40;116.07;;;38.15;;
67274;SDS011;55463;52.324;5.122;2023-02-15T06:44:05;132.63;;;37.67;;
67274;SDS011;55463;52.324;5.122;2023-02-15T06:46:31;133.73;;;38.10;;
67274;SDS011;55463;52.324;5.122;2023-02-15T06:48:56;135.18;;;38.72;;
67274;SDS011;55463;52.324;5.122;2023-02-15T06:51:22;134.05;;;37.45;;
67274;SDS011;55463;52.324;5.122;2023-02-15T06:53:47;124.15;;;38.28;;
67274;SDS011;55463;52.324;5.122;2023-02-15T06:56:13;140.85;;;38.97;;
67274;SDS011;55463;52.324;5.122;2023-02-15T06:58:38;119.88;;;37.58;;
67274;SDS011;55463;52.324;5.122;2023-02-15T07:01:05;121.93;;;38.95;;
67274;SDS011;55463;52.324;5.122;2023-02-15T07:03:32;126.70;;;37.40;;
67274;SDS011;55463;52.324;5.122;2023-02-15T07:05:58;135.40;;;38.88;;
67274;SDS011;55463;52.324;5.122;2023-02-15T07:08:25;123.65;;;37.97;;
67274;SDS011;55463;52.324;5.122;2023-02-15T07:10:52;126.95;;;37.60;;
67274;SDS011;55463;52.324;5.122;2023-02-15T07:13:19;112.63;;;37.15;;
67274;SDS011;55463;52.324;5.122;2023-02-15T07:15:45;141.95;;;40.75;;
67274;SDS011;55463;52.324;5.122;2023-02-15T07:18:11;130.63;;;39.28;;
67274;SDS011;55463;52.324;5.122;2023-02-15T07:20:37;134.00;;;40.30;;
67274;SDS011;55463;52.324;5.122;2023-02-15T07:23:03;137.50;;;40.75;;
67274;SDS011;55463;52.324;5.122;2023-02-15T07:25:30;114.45;;;38.47;;
67274;SDS011;55463;52.324;5.122;2023-02-15T07:27:56;134.10;;;39.10;;
67274;SDS011;55463;52.324;5.122;2023-02-15T07:30:25;123.63;;;41.75;;
67274;SDS011;55463;52.324;5.122;2023-02-15T07:32:55;136.27;;;38.83;;
67274;SDS011;55463;52.324;5.122;2023-02-15T07:35:46;122.32;;;39.75;;
67274;SDS011;55463;52.324;5.122;2023-02-15T07:38:25;137.23;;;40.25;;
67274;SDS011;55463;52.324;5.122;2023-02-15T07:40:51;125.20;;;40.17;;
67274;SDS011;55463;52.324;5.122;2023-02-15T07:43:22;144.15;;;41.20;;
67274;SDS011;55463;52.324;5.122;2023-02-15T07:45:47;127.10;;;39.40;;
67274;SDS011;55463;52.324;5.122;2023-02-15T07:48:13;124.80;;;40.97;;
67274;SDS011;55463;52.324;5.122;2023-02-15T07:50:38;138.07;;;37.88;;
67274;SDS011;55463;52.324;5.122;2023-02-15T07:53:04;137.70;;;40.70;;
67274;SDS011;55463;52.324;5.122;2023-02-15T07:55:29;131.68;;;42.08;;
67274;SDS011;55463;52.324;5.122;2023-02-15T07:57:55;134.27;;;42.75;;
67274;SDS011;55463;52.324;5.122;2023-02-15T08:00:21;126.60;;;41.38;;
67274;SDS011;55463;52.324;5.122;2023-02-15T08:02:53;126.20;;;44.30;;
67274;SDS011;55463;52.324;5.122;2023-02-15T08:05:38;131.18;;;40.08;;
67274;SDS011;55463;52.324;5.122;2023-02-15T08:08:05;144.75;;;41.90;;
67274;SDS011;55463;52.324;5.122;2023-02-15T08:10:32;135.95;;;41.53;;
67274;SDS011;55463;52.324;5.122;2023-02-15T08:13:16;145.25;;;41.42;;
67274;SDS011;55463;52.324;5.122;2023-02-15T08:15:51;117.63;;;40.53;;
67274;SDS011;55463;52.324;5.122;2023-02-15T08:18:16;117.72;;;40.47;;
67274;SDS011;55463;52.324;5.122;2023-02-15T08:20:42;125.07;;;41.10;;
67274;SDS011;55463;52.324;5.122;2023-02-15T08:23:07;138.73;;;42.03;;
67274;SDS011;55463;52.324;5.122;2023-02-15T08:25:33;136.70;;;43.25;;
67274;SDS011;55463;52.324;5.122;2023-02-15T08:27:58;139.45;;;44.17;;
67274;SDS011;55463;52.324;5.122;2023-02-15T08:30:24;105.43;;;41.67;;
67274;SDS011;55463;52.324;5.122;2023-02-15T08:32:49;131.52;;;45.00;;
67274;SDS011;55463;52.324;5.122;2023-02-15T08:35:14;129.80;;;44.35;;
67274;SDS011;55463;52.324;5.122;2023-02-15T08:37:40;113.50;;;42.17;;
67274;SDS011;55463;52.324;5.122;2023-02-15T08:40:05;124.32;;;43.45;;
67274;SDS011;55463;52.324;5.122;2023-02-15T08:42:32;113.20;;;40.78;;
67274;SDS011;55463;52.324;5.122;2023-02-15T08:44:58;125.07;;;42.90;;
67274;SDS011;55463;52.324;5.122;2023-02-15T08:47:23;107.03;;;40.08;;
67274;SDS011;55463;52.324;5.122;2023-02-15T08:49:49;108.53;;;43.42;;
67274;SDS011;55463;52.324;5.122;2023-02-15T08:52:16;116.95;;;43.05;;
67274;SDS011;55463;52.324;5.122;2023-02-15T08:54:41;104.60;;;42.47;;
67274;SDS011;55463;52.324;5.122;2023-02-15T08:57:07;125.97;;;44.83;;
67274;SDS011;55463;52.324;5.122;2023-02-15T08:59:32;123.03;;;44.42;;
67274;SDS011;55463;52.324;5.122;2023-02-15T09:02:00;127.50;;;45.83;;
67274;SDS011;55463;52.324;5.122;2023-02-15T09:04:25;110.32;;;43.35;;
67274;SDS011;55463;52.324;5.122;2023-02-15T09:06:51;122.22;;;45.97;;
67274;SDS011;55463;52.324;5.122;2023-02-15T09:09:17;111.25;;;44.00;;
67274;SDS011;55463;52.324;5.122;2023-02-15T09:11:47;111.13;;;44.13;;
67274;SDS011;55463;52.324;5.122;2023-02-15T09:16:45;105.93;;;42.00;;
67274;SDS011;55463;52.324;5.122;2023-02-15T09:19:13;95.75;;;41.47;;
67274;SDS011;55463;52.324;5.122;2023-02-15T09:21:40;104.05;;;42.85;;
67274;SDS011;55463;52.324;5.122;2023-02-15T09:24:09;110.53;;;43.70;;
67274;SDS011;55463;52.324;5.122;2023-02-15T09:26:37;93.10;;;39.87;;
67274;SDS011;55463;52.324;5.122;2023-02-15T09:29:07;104.65;;;42.88;;
67274;SDS011;55463;52.324;5.122;2023-02-15T09:31:36;102.57;;;40.95;;
67274;SDS011;55463;52.324;5.122;2023-02-15T09:34:03;108.50;;;41.60;;
67274;SDS011;55463;52.324;5.122;2023-02-15T09:36:35;99.47;;;40.08;;
67274;SDS011;55463;52.324;5.122;2023-02-15T09:39:13;81.50;;;37.92;;
67274;SDS011;55463;52.324;5.122;2023-02-15T09:41:50;89.65;;;37.35;;
67274;SDS011;55463;52.324;5.122;2023-02-15T09:47:28;66.50;;;32.13;;
67274;SDS011;55463;52.324;5.122;2023-02-15T09:50:34;84.18;;;36.42;;
67274;SDS011;55463;52.324;5.122;2023-02-15T09:59:09;78.70;;;34.45;;
67274;SDS011;55463;52.324;5.122;2023-02-15T10:02:06;71.97;;;35.42;;
67274;SDS011;55463;52.324;5.122;2023-02-15T10:07:47;72.47;;;37.38;;
67274;SDS011;55463;52.324;5.122;2023-02-15T10:10:27;74.25;;;35.40;;
67274;SDS011;55463;52.324;5.122;2023-02-15T10:13:20;65.55;;;33.53;;
67274;SDS011;55463;52.324;5.122;2023-02-15T10:16:24;53.88;;;25.95;;
67274;SDS011;55463;52.324;5.122;2023-02-15T10:21:59;71.70;;;34.88;;
67274;SDS011;55463;52.324;5.122;2023-02-15T10:27:57;62.97;;;33.45;;
67274;SDS011;55463;52.324;5.122;2023-02-15T10:39:02;67.22;;;34.03;;
67274;SDS011;55463;52.324;5.122;2023-02-15T10:41:42;68.97;;;34.42;;
67274;SDS011;55463;52.324;5.122;2023-02-15T10:48:06;59.15;;;30.55;;
67274;SDS011;55463;52.324;5.122;2023-02-15T10:50:26;64.10;;;32.92;;
67274;SDS011;55463;52.324;5.122;2023-02-15T10:53:00;60.20;;;31.30;;
67274;SDS011;55463;52.324;5.122;2023-02-15T10:55:52;62.17;;;31.83;;
67274;SDS011;55463;52.324;5.122;2023-02-15T11:01:34;57.75;;;28.45;;
67274;SDS011;55463;52.324;5.122;2023-02-15T11:06:43;59.70;;;28.70;;
67274;SDS011;55463;52.324;5.122;2023-02-15T11:09:17;59.28;;;28.10;;
67274;SDS011;55463;52.324;5.122;2023-02-15T11:11:48;59.53;;;26.75;;
67274;SDS011;55463;52.324;5.122;2023-02-15T11:14:17;54.28;;;26.77;;
67274;SDS011;55463;52.324;5.122;2023-02-15T11:16:54;53.20;;;28.67;;
67274;SDS011;55463;52.324;5.122;2023-02-15T11:20:08;54.70;;;28.10;;
67274;SDS011;55463;52.324;5.122;2023-02-15T11:22:28;58.22;;;28.20;;
67274;SDS011;55463;52.324;5.122;2023-02-15T11:24:57;50.30;;;25.42;;
67274;SDS011;55463;52.324;5.122;2023-02-15T11:27:25;54.83;;;26.15;;
67274;SDS011;55463;52.324;5.122;2023-02-15T11:40:35;49.40;;;25.42;;
67274;SDS011;55463;52.324;5.122;2023-02-15T11:43:11;47.55;;;25.42;;
67274;SDS011;55463;52.324;5.122;2023-02-15T11:45:42;46.35;;;25.70;;
67274;SDS011;55463;52.324;5.122;2023-02-15T11:48:15;52.88;;;25.75;;
67274;SDS011;55463;52.324;5.122;2023-02-15T11:50:42;53.63;;;26.00;;
67274;SDS011;55463;52.324;5.122;2023-02-15T11:53:13;52.20;;;25.33;;
67274;SDS011;55463;52.324;5.122;2023-02-15T11:55:42;47.30;;;24.98;;
67274;SDS011;55463;52.324;5.122;2023-02-15T11:58:14;51.67;;;26.92;;
67274;SDS011;55463;52.324;5.122;2023-02-15T12:00:49;47.70;;;24.92;;
67274;SDS011;55463;52.324;5.122;2023-02-15T12:06:16;43.47;;;24.77;;
67274;SDS011;55463;52.324;5.122;2023-02-15T12:11:41;40.97;;;25.40;;
67274;SDS011;55463;52.324;5.122;2023-02-15T12:14:08;51.30;;;26.75;;
67274;SDS011;55463;52.324;5.122;2023-02-15T12:16:45;48.17;;;24.85;;
67274;SDS011;55463;52.324;5.122;2023-02-15T12:19:24;53.13;;;26.63;;
67274;SDS011;55463;52.324;5.122;2023-02-15T12:22:01;47.35;;;24.02;;
67274;SDS011;55463;52.324;5.122;2023-02-15T12:25:02;46.15;;;25.60;;
67274;SDS011;55463;52.324;5.122;2023-02-15T12:27:57;49.42;;;26.27;;
67274;SDS011;55463;52.324;5.122;2023-02-15T12:33:25;48.97;;;27.85;;
67274;SDS011;55463;52.324;5.122;2023-02-15T12:36:09;50.28;;;26.80;;
67274;SDS011;55463;52.324;5.122;2023-02-15T12:42:16;49.65;;;26.90;;
67274;SDS011;55463;52.324;5.122;2023-02-15T13:23:09;52.00;;;25.98;;
67274;SDS011;55463;52.324;5.122;2023-02-15T13:28:10;51.67;;;27.27;;
67274;SDS011;55463;52.324;5.122;2023-02-15T13:30:59;49.35;;;26.80;;
67274;SDS011;55463;52.324;5.122;2023-02-15T13:33:37;54.50;;;28.20;;
67274;SDS011;55463;52.324;5.122;2023-02-15T13:38:56;54.33;;;30.00;;
67274;SDS011;55463;52.324;5.122;2023-02-15T13:47:32;51.72;;;30.65;;
67274;SDS011;55463;52.324;5.122;2023-02-15T13:50:10;56.40;;;30.33;;
67274;SDS011;55463;52.324;5.122;2023-02-15T13:55:38;51.45;;;28.65;;
67274;SDS011;55463;52.324;5.122;2023-02-15T13:58:24;51.65;;;28.50;;
67274;SDS011;55463;52.324;5.122;2023-02-15T14:01:11;55.38;;;29.52;;
67274;SDS011;55463;52.324;5.122;2023-02-15T14:09:33;56.05;;;30.00;;
67274;SDS011;55463;52.324;5.122;2023-02-15T14:12:40;53.83;;;28.27;;
67274;SDS011;55463;52.324;5.122;2023-02-15T14:15:29;49.30;;;29.10;;
67274;SDS011;55463;52.324;5.122;2023-02-15T14:18:06;55.20;;;30.40;;
67274;SDS011;55463;52.324;5.122;2023-02-15T14:20:45;53.85;;;29.77;;
67274;SDS011;55463;52.324;5.122;2023-02-15T14:23:24;47.05;;;28.40;;
67274;SDS011;55463;52.324;5.122;2023-02-15T14:26:00;52.05;;;29.55;;
67274;SDS011;55463;52.324;5.122;2023-02-15T14:28:54;51.05;;;27.70;;
67274;SDS011;55463;52.324;5.122;2023-02-15T14:31:40;56.15;;;28.98;;
67274;SDS011;55463;52.324;5.122;2023-02-15T14:34:17;54.30;;;28.83;;
67274;SDS011;55463;52.324;5.122;2023-02-15T14:36:49;53.72;;;29.60;;
67274;SDS011;55463;52.324;5.122;2023-02-15T14:39:29;53.50;;;28.60;;
67274;SDS011;55463;52.324;5.122;2023-02-15T14:42:24;47.50;;;26.52;;
67274;SDS011;55463;52.324;5.122;2023-02-15T14:45:00;52.45;;;29.23;;
67274;SDS011;55463;52.324;5.122;2023-02-15T14:47:39;49.47;;;26.50;;
67274;SDS011;55463;52.324;5.122;2023-02-15T15:01:25;51.50;;;27.75;;
67274;SDS011;55463;52.324;5.122;2023-02-15T15:03:53;47.72;;;26.98;;
67274;SDS011;55463;52.324;5.122;2023-02-15T15:06:31;45.20;;;28.55;;
67274;SDS011;55463;52.324;5.122;2023-02-15T15:11:50;54.20;;;28.60;;
67274;SDS011;55463;52.324;5.122;2023-02-15T15:14:50;50.20;;;30.48;;
67274;SDS011;55463;52.324;5.122;2023-02-15T15:17:11;53.92;;;28.17;;
67274;SDS011;55463;52.324;5.122;2023-02-15T15:20:05;58.53;;;30.55;;
67274;SDS011;55463;52.324;5.122;2023-02-15T15:22:32;57.97;;;31.80;;
67274;SDS011;55463;52.324;5.122;2023-02-15T15:25:00;58.97;;;30.45;;
67274;SDS011;55463;52.324;5.122;2023-02-15T15:27:37;58.40;;;30.20;;
67274;SDS011;55463;52.324;5.122;2023-02-15T15:35:44;60.78;;;30.98;;
67274;SDS011;55463;52.324;5.122;2023-02-15T15:43:38;55.97;;;32.08;;
67274;SDS011;55463;52.324;5.122;2023-02-15T15:46:29;56.10;;;30.30;;
67274;SDS011;55463;52.324;5.122;2023-02-15T15:49:08;56.95;;;30.35;;
67274;SDS011;55463;52.324;5.122;2023-02-15T15:51:39;58.33;;;31.23;;
67274;SDS011;55463;52.324;5.122;2023-02-15T15:54:11;60.95;;;31.67;;
67274;SDS011;55463;52.324;5.122;2023-02-15T15:56:40;56.42;;;31.63;;
67274;SDS011;55463;52.324;5.122;2023-02-15T15:59:18;61.50;;;32.22;;
67274;SDS011;55463;52.324;5.122;2023-02-15T16:01:46;59.70;;;30.63;;
67274;SDS011;55463;52.324;5.122;2023-02-15T16:04:22;56.17;;;29.17;;
67274;SDS011;55463;52.324;5.122;2023-02-15T16:06:50;56.38;;;31.77;;
67274;SDS011;55463;52.324;5.122;2023-02-15T16:09:18;56.00;;;32.08;;
67274;SDS011;55463;52.324;5.122;2023-02-15T16:11:46;58.67;;;31.00;;
67274;SDS011;55463;52.324;5.122;2023-02-15T16:14:20;55.15;;;30.70;;
67274;SDS011;55463;52.324;5.122;2023-02-15T16:16:52;56.70;;;30.40;;
67274;SDS011;55463;52.324;5.122;2023-02-15T16:19:22;54.08;;;30.05;;
67274;SDS011;55463;52.324;5.122;2023-02-15T16:21:51;58.25;;;30.80;;
67274;SDS011;55463;52.324;5.122;2023-02-15T16:30:44;59.70;;;31.45;;
67274;SDS011;55463;52.324;5.122;2023-02-15T16:32:48;63.85;;;31.90;;
67274;SDS011;55463;52.324;5.122;2023-02-15T16:35:15;56.55;;;31.33;;
67274;SDS011;55463;52.324;5.122;2023-02-15T16:37:45;56.13;;;31.70;;
67274;SDS011;55463;52.324;5.122;2023-02-15T16:42:56;58.75;;;31.30;;
67274;SDS011;55463;52.324;5.122;2023-02-15T16:45:26;58.53;;;31.90;;
67274;SDS011;55463;52.324;5.122;2023-02-15T16:47:55;62.50;;;31.40;;
67274;SDS011;55463;52.324;5.122;2023-02-15T16:50:23;53.47;;;31.70;;
67274;SDS011;55463;52.324;5.122;2023-02-15T16:52:57;61.13;;;31.17;;
67274;SDS011;55463;52.324;5.122;2023-02-15T16:55:25;60.33;;;31.30;;
67274;SDS011;55463;52.324;5.122;2023-02-15T16:57:57;60.35;;;32.03;;
67274;SDS011;55463;52.324;5.122;2023-02-15T17:00:30;56.50;;;31.25;;
67274;SDS011;55463;52.324;5.122;2023-02-15T17:05:58;67.60;;;32.85;;
67274;SDS011;55463;52.324;5.122;2023-02-15T17:11:14;61.78;;;31.88;;
67274;SDS011;55463;52.324;5.122;2023-02-15T17:16:43;60.92;;;32.45;;
67274;SDS011;55463;52.324;5.122;2023-02-15T17:19:17;65.15;;;31.83;;
67274;SDS011;55463;52.324;5.122;2023-02-15T17:21:54;64.00;;;33.40;;
67274;SDS011;55463;52.324;5.122;2023-02-15T17:26:57;60.38;;;31.67;;
67274;SDS011;55463;52.324;5.122;2023-02-15T17:31:58;58.35;;;30.65;;
67274;SDS011;55463;52.324;5.122;2023-02-15T17:34:41;66.15;;;33.53;;
67274;SDS011;55463;52.324;5.122;2023-02-15T17:37:26;57.53;;;29.15;;
67274;SDS011;55463;52.324;5.122;2023-02-15T17:40:23;61.05;;;31.27;;
67274;SDS011;55463;52.324;5.122;2023-02-15T17:42:51;65.38;;;31.77;;
67274;SDS011;55463;52.324;5.122;2023-02-15T17:45:17;73.07;;;33.70;;
67274;SDS011;55463;52.324;5.122;2023-02-15T17:47:43;56.45;;;30.85;;
67274;SDS011;55463;52.324;5.122;2023-02-15T17:50:23;59.03;;;30.83;;
67274;SDS011;55463;52.324;5.122;2023-02-15T17:52:52;62.28;;;32.13;;
67274;SDS011;55463;52.324;5.122;2023-02-15T17:55:20;59.17;;;30.98;;
67274;SDS011;55463;52.324;5.122;2023-02-15T17:58:08;61.65;;;32.28;;
67274;SDS011;55463;52.324;5.122;2023-02-15T18:00:39;74.10;;;34.00;;
67274;SDS011;55463;52.324;5.122;2023-02-15T18:03:38;69.97;;;33.83;;
67274;SDS011;55463;52.324;5.122;2023-02-15T18:06:33;63.83;;;32.13;;
67274;SDS011;55463;52.324;5.122;2023-02-15T18:09:22;68.20;;;33.00;;
67274;SDS011;55463;52.324;5.122;2023-02-15T18:14:56;69.65;;;35.13;;
67274;SDS011;55463;52.324;5.122;2023-02-15T18:17:30;75.10;;;34.28;;
67274;SDS011;55463;52.324;5.122;2023-02-15T18:19:58;71.60;;;35.50;;
67274;SDS011;55463;52.324;5.122;2023-02-15T18:22:25;76.53;;;36.50;;
67274;SDS011;55463;52.324;5.122;2023-02-15T18:24:58;66.80;;;33.35;;
67274;SDS011;55463;52.324;5.122;2023-02-15T18:27:24;73.80;;;33.92;;
67274;SDS011;55463;52.324;5.122;2023-02-15T18:29:52;68.47;;;35.13;;
67274;SDS011;55463;52.324;5.122;2023-02-15T18:32:23;69.85;;;34.63;;
67274;SDS011;55463;52.324;5.122;2023-02-15T18:34:56;72.68;;;34.83;;
67274;SDS011;55463;52.324;5.122;2023-02-15T18:37:23;65.05;;;36.00;;